• Join FlightAware (Why Join?)
  • Login
  • US Flag 
12:03AM EDT


 

Airport Tracker/Info


-or-


 

Live Flight TrackerFlight Track Log ✈ CRQ922 ✈ 24-Jun-2013 ✈ CYGW - CYKU

Flight Track Log - Related Links

Times and Time Zones

All times are in EDT time to prevent confusion due to time zone crossing. See the CRQ922 flight status page for this flight to view local times or setup timezone preferences in your user account.

Time Position Orientation Groundspeed Altitude Reporting Facility
EDT Latitude Longitude Course Direction KTS MPH feet Rate Location/Type
01:37PM 55.2333 -77.8833 189° South 200 230 6,300  Level Montreal Center
01:38PM 55.1833 -77.9000 191° South 180 207 7,500 1,200 Climbing Montreal Center
01:39PM 55.1500 -77.9667 229° Southwest 180 207 8,800 1,140 Climbing Montreal Center
01:40PM 54.8279 -77.8871 189° South  Level Estimated
01:40PM 55.0833 -78.0000 196° South 190 219 9,800  Level Montreal Center
01:41PM 54.7631 -77.9053 189° South  Level Estimated
01:41PM 55.0333 -78.0167 191° South 190 219 10,800  Level Montreal Center
01:42PM 54.6982 -77.9234 189° South  Level Estimated
01:42PM 54.9833 -78.0500 201° Southwest 190 219 11,800  Level Montreal Center
01:43PM 54.6334 -77.9415 189° South  Level Estimated
01:43PM 54.9333 -78.1000 210° Southwest 210 242 11,900  Level Montreal Center
01:44PM 54.8667 -78.1500 203° Southwest 230 265 12,000  Climbing Montreal Center
01:45PM 54.8167 -78.1833 201° Southwest 240 276 12,000  Level Montreal Center
01:46PM 54.7500 -78.2333 203° Southwest 250 288 12,000  Level Montreal Center
01:47PM 54.6833 -78.3000 210° Southwest 250 288 12,000  Level Montreal Center
01:48PM 54.6167 -78.3500 203° Southwest 250 288 12,000  Level Montreal Center
01:49PM 54.5667 -78.4000 210° Southwest 240 276 12,000  Level Montreal Center
01:50PM 54.5000 -78.4500 204° Southwest 240 276 12,000  Level Montreal Center
01:51PM 54.4500 -78.5167 218° Southwest 240 276 12,000  Level Montreal Center
01:52PM 54.3833 -78.5667 204° Southwest 240 276 12,000 -300 Level Montreal Center
01:53PM 54.3167 -78.6167 204° Southwest 240 276 11,400 -1,020 Descending Montreal Center
01:54PM 54.2500 -78.6667 204° Southwest 260 299 10,000 -1,500 Descending Montreal Center
01:55PM 54.1833 -78.7500 216° Southwest 260 299 8,500 -1,500 Descending Montreal Center
01:56PM 54.1333 -78.8000 210° Southwest 260 299 7,000 -1,500 Descending Montreal Center
01:57PM 54.0667 -78.8667 210° Southwest 250 288 5,500 -1,500 Descending Montreal Center
01:58PM 54.0167 -78.9167 210° Southwest 240 276 4,100 -1,260 Descending Montreal Center
01:59PM 53.9500 -78.9667 204° Southwest 240 276 3,000 -960 Descending Montreal Center
02:00PM 53.9000 -79.0167 211° Southwest 200 230 2,200 -900 Descending Montreal Center
02:01PM 53.8500 -79.0500 201° Southwest 170 196 1,300 -600 Descending Montreal Center
02:02PM 53.8500 -78.9833 90° East 140 161 1,000 -480 Descending Montreal Center
02:03PM 53.8333 -78.9667 149° Southeast 110 127 400 -600 Descending Montreal Center
02:06PM 53.7584 -78.9582 176° South  Level FlightAware Approximate
02:13PM 53.3151 -78.9084 176° South  Level FlightAware Approximate
02:14PM 53.2518 -78.9014 176° South  Level FlightAware Approximate
02:15PM 53.1885 -78.8944 176° South  Level FlightAware Approximate
02:16PM 53.1251 -78.8874 176° South  Level FlightAware Approximate
02:17PM 53.0618 -78.8804 176° South  Level FlightAware Approximate
02:18PM 52.9985 -78.8735 176° South  Level FlightAware Approximate
02:19PM 52.9351 -78.8666 176° South  Level FlightAware Approximate
02:20PM 52.8718 -78.8597 176° South  Level FlightAware Approximate
02:21PM 52.8085 -78.8528 176° South  Level FlightAware Approximate
02:22PM 52.7452 -78.8459 176° South  Level FlightAware Approximate
02:23PM 52.6818 -78.8391 176° South  Level FlightAware Approximate
02:24PM 52.6185 -78.8323 176° South  Level FlightAware Approximate
02:25PM 52.5552 -78.8255 176° South  Level FlightAware Approximate
02:26PM 52.4918 -78.8187 176° South  Level FlightAware Approximate
02:27PM 52.4285 -78.8119 176° South  Level FlightAware Approximate
02:28PM 52.3652 -78.8052 176° South  Level FlightAware Approximate
02:29PM 52.3018 -78.7984 176° South  Level FlightAware Approximate
02:30PM 52.2385 -78.7917 176° South  Level FlightAware Approximate
02:31PM 52.1752 -78.7851 176° South  Level FlightAware Approximate
02:32PM 52.1118 -78.7784 176° South  Level FlightAware Approximate
02:33PM 52.0485 -78.7717 176° South  Level FlightAware Approximate
02:34PM 51.9853 -78.7652 176° South  Level FlightAware Approximate
02:35PM 51.9219 -78.7588 176° South  Level FlightAware Approximate
02:36PM 51.8586 -78.7525 176° South  Level FlightAware Approximate
02:37PM 51.7952 -78.7500 180° South  Level FlightAware Approximate
02:38PM 51.7317 -78.7500 180° South  Level FlightAware Approximate
02:39PM 51.6682 -78.7500 180° South  Level FlightAware Approximate
02:40PM 51.6048 -78.7500 180° South  Level FlightAware Approximate
02:41PM 51.5413 -78.7500 180° South  Level FlightAware Approximate
02:42PM 51.4778 -78.7500 180° South  Level FlightAware Approximate
02:43PM 51.4667 -78.7500 180° South  Level FlightAware Approximate
02:44PM 51.4736 -78.7581 180° South  Level Estimated
02:45PM 51.4736 -78.7581 180° South  Level Estimated
02:46PM 51.4736 -78.7581 180° South  Level Estimated
02:47PM 51.4736 -78.7581 180° South  Level Estimated
02:48PM 51.4736 -78.7581 180° South  Level Estimated
02:49PM 51.4736 -78.7581 180° South  Level Estimated
02:50PM 51.4736 -78.7581 180° South  Level Estimated
02:51PM 51.4736 -78.7581 180° South  Level Estimated
02:52PM 51.4736 -78.7581 180° South  Level Estimated